Date,TemperatureHighF,TemperatureAvgF,TemperatureLowF,DewpointHighF,DewpointAvgF,DewpointLowF,HumidityHigh,HumidityAvg,HumidityLow,PressureMaxIn,PressureMinIn,WindSpeedMaxMPH,WindSpeedAvgMPH,GustSpeedMaxMPH,PrecipitationSumIn
2013-2-1,18,12,6,7,5,1,85,74,59,30.10,29.47,14,4,20,0.00
2013-2-2,15,10,2,10,5,-1,89,81,68,30.19,30.06,6,1,12,0.00
2013-2-3,22,14,7,12,8,4,89,80,50,30.06,29.76,4,1,7,0.00
2013-2-4,18,12,3,12,2,-8,91,67,32,29.92,29.74,9,2,20,0.00
2013-2-5,18,9,-2,8,-2,-10,76,63,46,30.04,29.92,4,1,6,0.00
2013-2-6,24,16,5,20,9,-7,89,72,49,30.36,29.92,13,2,18,0.00
2013-2-7,16,6,-3,9,-4,-11,75,64,48,30.58,30.35,4,1,10,0.00
2013-2-8,24,20,15,19,14,3,87,78,51,30.45,29.91,16,2,16,0.00
2013-2-9,15,7,2,12,1,-4,88,76,64,30.38,29.91,11,2,20,0.00
2013-2-10,25,14,2,7,1,-4,80,57,33,30.52,30.31,4,1,8,0.00
2013-2-11,37,34,27,36,22,-2,95,69,22,30.29,29.60,9,2,18,0.09
2013-2-12,32,30,26,28,25,23,89,83,77,29.83,29.58,10,2,17,0.00
2013-2-13,32,27,24,23,21,19,89,77,60,29.84,29.75,5,1,9,0.00
2013-2-14,30,27,25,21,19,18,84,74,63,29.94,29.74,6,1,8,0.00
2013-2-15,37,32,28,29,24,19,91,73,55,29.95,29.85,8,2,16,0.01
2013-2-16,27,20,12,21,12,2,89,71,52,29.97,29.89,6,1,11,0.00
2013-2-17,12,7,4,3,0,-2,84,76,64,29.88,29.68,13,4,21,0.00
2013-2-18,19,9,1,-1,-5,-8,82,57,31,30.20,29.87,12,4,20,0.00
2013-2-19,46,30,12,31,16,-3,94,58,36,30.18,29.60,12,1,13,0.00
2013-2-20,30,22,17,29,18,13,94,85,70,29.75,29.58,4,0,5,0.00
2013-2-21,18,11,4,16,7,0,91,83,74,30.42,29.76,0,0,0,0.00
2013-2-22,33,24,15,22,19,13,92,80,61,30.46,30.25,4,0,7,0.00
2013-2-23,34,31,28,30,26,19,91,82,67,30.24,29.88,8,1,10,0.00
2013-2-24,32,30,26,30,28,24,94,91,86,29.94,29.76,5,0,7,0.00
2013-2-25,31,28,26,29,26,24,94,93,89,30.24,29.95,0,0,0,0.00
2013-2-26,37,31,27,30,27,24,95,84,69,30.32,30.08,5,1,10,0.09
2013-2-27,34,32,30,31,28,24,93,86,74,30.08,29.57,12,2,27,0.00
2013-2-28,40,33,28,32,29,27,95,88,70,29.61,29.55,4,0,8,0.14